createdAt,value
2023-04-14T00:00:13.569Z,15.07
2023-04-14T00:02:42.617Z,13.87
2023-04-14T00:05:10.782Z,13.73
2023-04-14T00:07:38.446Z,14.47
2023-04-14T00:10:06.918Z,13.27
2023-04-14T00:12:34.537Z,14.53
2023-04-14T00:15:02.132Z,13.80
2023-04-14T00:17:29.804Z,14.00
2023-04-14T00:19:59.885Z,13.53
2023-04-14T00:22:27.533Z,14.07
2023-04-14T00:24:55.197Z,14.33
2023-04-14T00:27:22.826Z,14.43
2023-04-14T00:29:50.454Z,13.50
2023-04-14T00:32:18.156Z,14.70
2023-04-14T00:34:45.926Z,14.43
2023-04-14T00:37:14.911Z,13.70
2023-04-14T00:39:42.553Z,14.17
2023-04-14T00:42:10.187Z,13.90
2023-04-14T00:44:38.124Z,14.30
2023-04-14T00:47:06.668Z,14.87
2023-04-14T00:49:34.661Z,14.30
2023-04-14T00:52:02.676Z,16.93
2023-04-14T00:54:33.563Z,16.70
2023-04-14T00:57:01.769Z,16.60
2023-04-14T00:59:29.885Z,14.20
2023-04-14T01:01:58.153Z,15.03
2023-04-14T01:04:33.572Z,16.37
2023-04-14T01:07:04.533Z,16.23
2023-04-14T01:09:33.532Z,14.90
2023-04-14T01:12:10.405Z,14.73
2023-04-14T01:14:43.963Z,16.47
2023-04-14T01:17:18.225Z,16.70
2023-04-14T01:20:02.204Z,15.47
2023-04-14T01:22:33.386Z,15.40
2023-04-14T01:25:39.529Z,15.70
2023-04-14T01:28:21.793Z,16.10
2023-04-14T01:31:06.117Z,15.87
2023-04-14T01:33:39.274Z,15.30
2023-04-14T01:36:11.176Z,15.70
2023-04-14T01:38:41.003Z,15.60
2023-04-14T01:41:12.059Z,15.40
2023-04-14T01:43:43.327Z,15.77
2023-04-14T01:46:15.232Z,16.70
2023-04-14T01:48:46.208Z,15.43
2023-04-14T01:51:18.196Z,15.70
2023-04-14T01:53:46.919Z,15.70
2023-04-14T01:56:17.369Z,15.20
2023-04-14T01:58:47.585Z,16.30
2023-04-14T02:01:17.008Z,16.10
2023-04-14T02:03:47.544Z,17.50
2023-04-14T02:06:17.360Z,17.27
2023-04-14T02:08:45.756Z,16.73
2023-04-14T02:11:15.853Z,17.87
2023-04-14T02:13:44.886Z,15.93
2023-04-14T02:16:13.370Z,17.07
2023-04-14T02:18:42.391Z,17.13
2023-04-14T02:21:15.026Z,16.57
2023-04-14T02:23:42.758Z,16.80
2023-04-14T02:26:13.934Z,19.17
2023-04-14T02:28:47.805Z,18.07
2023-04-14T02:31:21.351Z,15.67
2023-04-14T02:33:53.416Z,17.10
2023-04-14T02:36:29.094Z,16.60
2023-04-14T02:38:59.794Z,16.40
2023-04-14T02:41:29.852Z,18.10
2023-04-14T02:44:05.062Z,16.63
2023-04-14T02:46:37.024Z,19.77
2023-04-14T02:49:06.135Z,18.40
2023-04-14T02:51:37.073Z,22.47
2023-04-14T02:54:06.537Z,22.23
2023-04-14T02:56:35.885Z,17.80
2023-04-14T02:59:04.185Z,18.80
2023-04-14T03:01:33.710Z,19.13
2023-04-14T03:04:02.783Z,17.70
2023-04-14T03:06:31.749Z,17.30
2023-04-14T03:09:02.274Z,17.67
2023-04-14T03:11:30.818Z,19.00
2023-04-14T03:14:00.372Z,16.43
2023-04-14T03:16:30.783Z,18.83
2023-04-14T03:18:59.739Z,17.50
2023-04-14T03:21:30.108Z,19.80
2023-04-14T03:24:00.772Z,18.27
2023-04-14T03:26:31.140Z,18.13
2023-04-14T03:29:02.021Z,19.73
2023-04-14T03:31:33.707Z,20.93
2023-04-14T03:34:04.238Z,20.00
2023-04-14T03:36:32.879Z,21.47
2023-04-14T03:39:03.345Z,19.00
2023-04-14T03:41:34.215Z,20.63
2023-04-14T03:44:05.050Z,20.10
2023-04-14T03:46:32.785Z,20.47
2023-04-14T03:49:02.269Z,22.73
2023-04-14T03:51:33.183Z,19.87
2023-04-14T03:54:03.575Z,19.17
2023-04-14T03:56:37.987Z,20.33
2023-04-14T03:59:09.557Z,18.67
2023-04-14T04:01:39.165Z,22.73
2023-04-14T04:04:08.961Z,21.57
2023-04-14T04:06:37.542Z,21.57
2023-04-14T04:09:07.324Z,22.53
2023-04-14T04:11:36.542Z,22.07
2023-04-14T04:14:07.132Z,23.30
2023-04-14T04:16:36.867Z,21.03
2023-04-14T04:19:07.430Z,21.07
2023-04-14T04:21:37.458Z,20.90
2023-04-14T04:24:08.477Z,22.00
2023-04-14T04:26:36.636Z,21.50
2023-04-14T04:29:05.631Z,21.93
2023-04-14T04:31:34.855Z,24.43
2023-04-14T04:34:04.326Z,22.87
2023-04-14T04:36:32.901Z,27.37
2023-04-14T04:39:00.892Z,26.47
2023-04-14T04:41:31.237Z,26.30
2023-04-14T04:43:59.994Z,25.07
2023-04-14T04:46:51.462Z,27.90
2023-04-14T04:49:19.110Z,28.23
2023-04-14T04:51:47.050Z,28.93
2023-04-14T04:54:14.722Z,38.83
2023-04-14T04:56:43.742Z,49.23
2023-04-14T04:59:11.758Z,63.30
2023-04-14T05:01:39.462Z,45.27
2023-04-14T05:04:07.536Z,45.57
2023-04-14T05:06:38.270Z,219.83
2023-04-14T05:09:06.661Z,164.27
2023-04-14T05:11:34.832Z,218.43
2023-04-14T05:14:04.449Z,139.30
2023-04-14T05:16:32.084Z,205.60
2023-04-14T05:19:00.474Z,156.90
2023-04-14T05:21:28.348Z,114.57
2023-04-14T05:23:56.078Z,94.63
2023-04-14T05:26:38.804Z,133.80
2023-04-14T05:29:12.800Z,91.27
2023-04-14T05:31:40.524Z,212.63
2023-04-14T05:34:08.348Z,175.77
2023-04-14T05:36:35.997Z,111.40
2023-04-14T05:39:03.646Z,268.80
2023-04-14T05:41:31.252Z,317.50
2023-04-14T05:43:58.940Z,128.40
2023-04-14T05:46:28.001Z,242.37
2023-04-14T05:48:56.830Z,123.80
2023-04-14T05:51:25.385Z,158.80
2023-04-14T05:53:53.052Z,178.83
2023-04-14T05:56:20.760Z,138.93
2023-04-14T05:58:48.383Z,135.47
2023-04-14T06:01:16.475Z,151.10
2023-04-14T06:03:45.581Z,70.80
2023-04-14T06:06:13.497Z,245.57
2023-04-14T06:08:41.508Z,88.77
2023-04-14T06:11:09.098Z,128.93
2023-04-14T06:13:36.746Z,74.77
2023-04-14T06:16:04.616Z,155.67
2023-04-14T06:18:32.389Z,105.80
2023-04-14T06:21:02.777Z,160.37
2023-04-14T06:23:31.560Z,121.87
2023-04-14T06:25:59.193Z,194.07
2023-04-14T06:28:26.859Z,113.63
2023-04-14T06:30:54.632Z,143.73
2023-04-14T06:33:22.275Z,85.70
2023-04-14T06:35:49.894Z,259.13
2023-04-14T06:38:18.844Z,65.47
2023-04-14T06:40:46.439Z,55.27
2023-04-14T06:43:14.937Z,56.00
2023-04-14T06:45:42.612Z,30.93
2023-04-14T06:48:11.479Z,28.43
2023-04-14T06:50:39.264Z,72.63
2023-04-14T06:53:07.173Z,98.40
2023-04-14T06:55:37.140Z,28.63
2023-04-14T06:58:04.766Z,22.57
2023-04-14T07:00:32.659Z,63.07
2023-04-14T07:03:00.518Z,21.17
2023-04-14T07:05:28.311Z,21.37
2023-04-14T07:07:56.077Z,21.00
2023-04-14T07:10:23.691Z,20.40
2023-04-14T07:12:52.697Z,20.67
2023-04-14T07:15:20.498Z,20.30
2023-04-14T07:17:48.549Z,18.67
2023-04-14T07:20:16.493Z,19.70
2023-04-14T07:22:44.050Z,19.20
2023-04-14T07:25:11.667Z,19.90
2023-04-14T07:27:45.042Z,20.23
2023-04-14T07:30:19.440Z,19.43
2023-04-14T07:32:47.923Z,17.87
2023-04-14T07:35:15.605Z,19.27
2023-04-14T07:37:43.252Z,19.80
2023-04-14T07:40:11.596Z,18.80
2023-04-14T07:42:39.235Z,19.17
2023-04-14T07:45:07.872Z,19.03
2023-04-14T07:47:37.285Z,17.73
2023-04-14T07:50:05.868Z,18.63
2023-04-14T07:52:33.456Z,17.93
2023-04-14T07:55:01.013Z,18.60
2023-04-14T07:57:28.824Z,18.30
2023-04-14T07:59:56.435Z,17.23
2023-04-14T08:02:24.219Z,17.30
2023-04-14T08:04:53.798Z,18.00
2023-04-14T08:07:21.531Z,17.17
2023-04-14T08:09:50.627Z,16.30
2023-04-14T08:12:18.296Z,19.10
2023-04-14T08:14:47.628Z,17.50
2023-04-14T08:17:15.313Z,16.80
2023-04-14T08:19:43.075Z,16.63
2023-04-14T08:22:12.598Z,16.00
2023-04-14T08:24:40.617Z,14.93
2023-04-14T08:27:08.226Z,15.20
2023-04-14T08:29:35.941Z,16.27
2023-04-14T08:32:04.705Z,15.27
2023-04-14T08:34:32.470Z,16.73
2023-04-14T08:37:00.613Z,16.90
2023-04-14T08:39:29.716Z,17.07
2023-04-14T08:41:58.108Z,15.53
2023-04-14T08:44:26.067Z,17.27
2023-04-14T08:46:53.887Z,16.07
2023-04-14T08:49:29.427Z,15.83
2023-04-14T08:51:59.591Z,15.27
2023-04-14T08:54:29.608Z,15.80
2023-04-14T08:56:58.480Z,16.27
2023-04-14T08:59:26.882Z,16.23
2023-04-14T09:01:56.647Z,15.50
2023-04-14T09:04:24.910Z,16.40
2023-04-14T09:06:53.413Z,15.83
2023-04-14T09:09:22.174Z,15.47
2023-04-14T09:11:52.610Z,15.33
2023-04-14T09:14:21.682Z,14.97
2023-04-14T09:16:52.480Z,14.23
2023-04-14T09:19:21.928Z,14.50
2023-04-14T09:21:54.437Z,15.13
2023-04-14T09:24:30.009Z,13.73
2023-04-14T09:27:03.394Z,14.20
2023-04-14T09:29:31.476Z,14.87
2023-04-14T09:31:59.258Z,13.70
2023-04-14T09:34:28.055Z,12.43
2023-04-14T09:37:04.396Z,12.13
2023-04-14T09:39:32.357Z,13.10
2023-04-14T09:42:01.600Z,11.23
2023-04-14T09:44:29.651Z,10.57
2023-04-14T09:46:58.903Z,10.70
2023-04-14T09:49:26.662Z,10.90
2023-04-14T09:51:55.133Z,11.07
2023-04-14T09:54:26.708Z,11.20
2023-04-14T09:56:54.634Z,11.27
2023-04-14T09:59:34.208Z,10.70
2023-04-14T10:02:05.591Z,10.67
2023-04-14T10:04:33.538Z,10.90
2023-04-14T10:07:01.885Z,13.33
2023-04-14T10:09:31.013Z,10.60
2023-04-14T10:12:10.208Z,9.33
2023-04-14T10:14:39.884Z,9.10
2023-04-14T10:17:08.090Z,9.40
2023-04-14T10:19:37.609Z,11.80
2023-04-14T10:22:06.561Z,9.30
2023-04-14T10:24:34.762Z,9.23
2023-04-14T10:27:05.026Z,8.50
2023-04-14T10:29:33.151Z,7.77
2023-04-14T10:32:06.450Z,8.83
2023-04-14T10:34:35.102Z,7.73
2023-04-14T10:37:15.380Z,10.90
2023-04-14T10:39:43.727Z,8.80
2023-04-14T10:42:11.558Z,11.50
2023-04-14T10:44:39.627Z,10.23
2023-04-14T10:47:09.081Z,8.43
2023-04-14T10:49:38.654Z,8.03
2023-04-14T10:52:08.034Z,8.23
2023-04-14T10:54:50.084Z,8.60
2023-04-14T10:57:18.782Z,7.60
2023-04-14T10:59:47.764Z,7.87
2023-04-14T11:02:25.722Z,9.50
2023-04-14T11:05:05.059Z,7.77
2023-04-14T11:07:38.056Z,8.43
2023-04-14T11:10:27.596Z,7.80
2023-04-14T11:13:03.816Z,8.37
2023-04-14T11:15:44.860Z,9.83
2023-04-14T11:18:15.923Z,6.23
2023-04-14T11:20:43.913Z,12.20
2023-04-14T11:23:13.680Z,9.37
2023-04-14T11:25:41.500Z,9.30
2023-04-14T11:28:09.133Z,6.90
2023-04-14T11:30:36.767Z,7.10
2023-04-14T11:33:05.504Z,7.47
2023-04-14T11:35:34.762Z,8.83
2023-04-14T11:38:02.696Z,10.20
2023-04-14T11:40:30.528Z,7.67
2023-04-14T11:43:00.584Z,8.90
2023-04-14T11:45:29.739Z,12.07
2023-04-14T11:47:58.980Z,6.47
2023-04-14T11:50:27.229Z,7.73
2023-04-14T11:52:59.529Z,7.60
2023-04-14T11:55:28.074Z,11.10
2023-04-14T11:57:57.031Z,7.27
2023-04-14T12:00:25.455Z,8.97
2023-04-14T12:02:53.408Z,10.80
2023-04-14T12:05:22.943Z,6.70
2023-04-14T12:07:51.275Z,7.17
2023-04-14T12:10:21.348Z,12.93
2023-04-14T12:12:48.977Z,7.27
2023-04-14T12:15:17.151Z,6.37
2023-04-14T12:17:45.004Z,5.47
2023-04-14T12:20:17.987Z,9.00
2023-04-14T12:22:45.788Z,6.17
2023-04-14T12:25:14.122Z,6.97
2023-04-14T12:27:43.426Z,5.00
2023-04-14T12:30:13.252Z,9.70
2023-04-14T12:32:41.876Z,5.30
2023-04-14T12:35:10.268Z,10.13
2023-04-14T12:37:38.781Z,6.20
2023-04-14T12:40:07.827Z,9.20
2023-04-14T12:42:48.200Z,5.20
2023-04-14T12:45:17.141Z,6.90
2023-04-14T12:47:54.209Z,8.63
2023-04-14T12:50:27.969Z,5.33
2023-04-14T12:52:56.646Z,5.80
2023-04-14T12:55:25.749Z,9.73
2023-04-14T12:57:55.056Z,6.73
2023-04-14T13:00:23.614Z,7.10
2023-04-14T13:02:52.168Z,8.27
2023-04-14T13:05:20.505Z,6.50
2023-04-14T13:07:48.212Z,7.80
2023-04-14T13:10:16.362Z,7.10
2023-04-14T13:12:44.373Z,5.60
2023-04-14T13:15:27.971Z,9.03
2023-04-14T13:18:01.262Z,5.03
2023-04-14T13:20:30.396Z,6.83
2023-04-14T13:22:57.969Z,6.53
2023-04-14T13:25:25.898Z,9.60
2023-04-14T13:27:54.130Z,5.43
2023-04-14T13:30:23.260Z,5.23
2023-04-14T13:32:50.932Z,5.03
2023-04-14T13:35:18.770Z,9.23
2023-04-14T13:37:46.882Z,5.60
2023-04-14T13:40:14.579Z,7.50
2023-04-14T13:42:42.163Z,6.13
2023-04-14T13:45:11.012Z,9.37
2023-04-14T13:47:40.017Z,6.80
2023-04-14T13:50:08.703Z,10.67
2023-04-14T13:52:36.317Z,6.43
2023-04-14T13:55:03.983Z,8.60
2023-04-14T13:57:31.834Z,7.70
2023-04-14T13:59:59.620Z,7.03
2023-04-14T14:02:27.376Z,5.00
2023-04-14T14:04:56.471Z,8.33
2023-04-14T14:07:24.083Z,5.23
2023-04-14T14:09:51.937Z,9.40
2023-04-14T14:12:19.553Z,5.37
2023-04-14T14:14:47.181Z,5.97
2023-04-14T14:17:14.760Z,7.73
2023-04-14T14:19:43.408Z,7.00
2023-04-14T14:22:12.459Z,6.30
2023-04-14T14:24:41.232Z,8.67
2023-04-14T14:27:08.834Z,8.27
2023-04-14T14:29:36.551Z,9.37
2023-04-14T14:32:04.473Z,6.20
2023-04-14T14:34:32.095Z,6.50
2023-04-14T14:36:59.726Z,9.23
2023-04-14T14:39:32.041Z,7.17
2023-04-14T14:41:59.990Z,13.70
2023-04-14T14:44:27.575Z,8.20
2023-04-14T14:46:55.322Z,7.43
2023-04-14T14:49:22.971Z,11.57
2023-04-14T14:51:50.731Z,9.10
2023-04-14T14:54:18.318Z,8.10
2023-04-14T14:56:47.402Z,9.40
2023-04-14T14:59:16.223Z,9.50
2023-04-14T15:01:43.970Z,12.53
2023-04-14T15:04:12.282Z,10.37
2023-04-14T15:06:40.299Z,10.30
2023-04-14T15:09:07.915Z,9.27
2023-04-14T15:11:35.662Z,11.43
2023-04-14T15:14:05.242Z,12.10
2023-04-14T15:16:33.246Z,11.50
2023-04-14T15:19:00.916Z,13.20
2023-04-14T15:21:28.550Z,13.37
2023-04-14T15:23:56.261Z,16.90
2023-04-14T15:26:23.866Z,14.23
2023-04-14T15:28:51.448Z,15.20
2023-04-14T15:31:20.776Z,17.53
2023-04-14T15:33:48.644Z,14.50
2023-04-14T15:36:16.907Z,13.33
2023-04-14T15:38:44.571Z,13.00
2023-04-14T15:41:12.135Z,14.80
2023-04-14T15:43:39.814Z,14.57
2023-04-14T15:46:07.498Z,15.90
2023-04-14T15:48:36.607Z,17.03
2023-04-14T15:51:04.985Z,17.93
2023-04-14T15:53:32.698Z,20.03
2023-04-14T15:56:00.505Z,25.40
2023-04-14T15:58:28.443Z,21.00
2023-04-14T16:00:56.703Z,19.63
2023-04-14T16:03:24.576Z,17.43
2023-04-14T16:06:01.357Z,16.37
2023-04-14T16:08:28.990Z,15.90
2023-04-14T16:10:57.024Z,12.97
2023-04-14T16:13:24.609Z,13.50
2023-04-14T16:15:52.702Z,13.47
2023-04-14T16:18:20.340Z,11.93
2023-04-14T16:20:50.045Z,10.47
2023-04-14T16:23:19.137Z,10.43
2023-04-14T16:25:49.644Z,9.20
2023-04-14T16:28:17.319Z,9.23
2023-04-14T16:30:45.675Z,7.30
2023-04-14T16:33:13.423Z,7.90
2023-04-14T16:35:41.227Z,7.73
2023-04-14T16:38:09.128Z,7.83
2023-04-14T16:40:38.695Z,7.47
2023-04-14T16:43:06.327Z,7.87
2023-04-14T16:45:34.571Z,6.00
2023-04-14T16:48:02.304Z,6.00
2023-04-14T16:50:31.845Z,6.10
2023-04-14T16:52:59.522Z,5.90
2023-04-14T16:55:27.137Z,6.00
2023-04-14T16:57:56.340Z,5.60
2023-04-14T17:00:25.163Z,5.80
2023-04-14T17:02:53.140Z,5.40
2023-04-14T17:05:21.769Z,6.13
2023-04-14T17:07:49.985Z,6.07
2023-04-14T17:10:17.652Z,6.80
2023-04-14T17:12:46.831Z,5.70
2023-04-14T17:15:15.939Z,5.97
2023-04-14T17:17:43.919Z,6.90
2023-04-14T17:20:12.443Z,7.90
2023-04-14T17:22:40.056Z,8.87
2023-04-14T17:25:10.719Z,6.53
2023-04-14T17:27:39.118Z,6.73
2023-04-14T17:30:10.142Z,7.03
2023-04-14T17:32:41.679Z,8.23
2023-04-14T17:35:10.659Z,7.93
2023-04-14T17:37:38.502Z,8.90
2023-04-14T17:40:08.221Z,9.63
2023-04-14T17:42:36.644Z,9.13
2023-04-14T17:45:05.120Z,10.53
2023-04-14T17:47:37.649Z,11.10
2023-04-14T17:50:07.964Z,10.03
2023-04-14T17:52:36.340Z,9.53
2023-04-14T17:55:05.431Z,9.83
2023-04-14T17:57:33.106Z,11.37
2023-04-14T18:00:01.113Z,11.90
2023-04-14T18:02:32.756Z,11.30
2023-04-14T18:05:00.666Z,12.13
2023-04-14T18:07:29.697Z,14.17
2023-04-14T18:09:57.496Z,15.23
2023-04-14T18:12:25.988Z,14.93
2023-04-14T18:14:54.016Z,18.13
2023-04-14T18:17:22.211Z,15.43
2023-04-14T18:19:49.863Z,14.70
2023-04-14T18:22:18.387Z,15.83
2023-04-14T18:24:48.130Z,18.33
2023-04-14T18:29:47.685Z,18.13
2023-04-14T18:32:15.384Z,15.10
2023-04-14T18:34:42.938Z,15.20
2023-04-14T18:37:10.744Z,14.37
2023-04-14T18:39:38.410Z,11.37
2023-04-14T18:42:08.264Z,10.50
2023-04-14T18:44:35.879Z,9.93
2023-04-14T18:47:03.496Z,8.13
2023-04-14T18:49:31.085Z,9.77
2023-04-14T18:51:58.693Z,7.67
2023-04-14T18:54:26.354Z,6.97
2023-04-14T18:56:54.047Z,7.57
2023-04-14T18:59:23.847Z,8.50
2023-04-14T19:01:52.745Z,8.20
2023-04-14T19:04:21.365Z,8.80
2023-04-14T19:06:49.679Z,8.53
2023-04-14T19:09:17.247Z,8.47
2023-04-14T19:11:46.087Z,9.10
2023-04-14T19:14:13.685Z,8.20
2023-04-14T19:16:42.625Z,9.47
2023-04-14T19:19:10.365Z,8.27
2023-04-14T19:21:37.944Z,7.47
2023-04-14T19:24:05.630Z,8.57
2023-04-14T19:26:34.248Z,8.77
2023-04-14T19:29:02.401Z,9.17
2023-04-14T19:31:30.199Z,8.47
2023-04-14T19:33:59.617Z,9.07
2023-04-14T19:36:27.552Z,9.40
2023-04-14T19:38:55.160Z,9.10
2023-04-14T19:41:22.853Z,10.10
2023-04-14T19:43:51.952Z,9.77
2023-04-14T19:46:19.547Z,11.50
2023-04-14T19:48:47.151Z,11.33
2023-04-14T19:51:16.237Z,11.30
2023-04-14T19:53:47.112Z,12.37
2023-04-14T19:56:14.899Z,10.93
2023-04-14T19:58:43.340Z,11.87
2023-04-14T20:01:11.273Z,12.47
2023-04-14T20:03:39.142Z,12.40
2023-04-14T20:06:27.986Z,12.17
2023-04-14T20:08:55.612Z,11.47
2023-04-14T20:11:27.170Z,12.13
2023-04-14T20:13:55.105Z,13.57
2023-04-14T20:16:23.756Z,13.17
2023-04-14T20:18:51.633Z,15.47
2023-04-14T20:21:19.447Z,14.63
2023-04-14T20:23:48.551Z,14.87
2023-04-14T20:26:16.442Z,16.93
2023-04-14T20:28:45.472Z,16.93
2023-04-14T20:31:13.656Z,17.07
2023-04-14T20:33:41.264Z,17.80
2023-04-14T20:36:08.971Z,16.23
2023-04-14T20:38:37.787Z,16.57
2023-04-14T20:41:07.027Z,16.37
2023-04-14T20:43:34.962Z,18.13
2023-04-14T20:46:03.785Z,15.93
2023-04-14T20:48:32.170Z,15.20
2023-04-14T20:51:01.338Z,16.23
2023-04-14T20:53:29.962Z,15.00
2023-04-14T20:55:57.607Z,15.20
2023-04-14T20:58:26.638Z,14.23
2023-04-14T21:00:54.316Z,15.43
2023-04-14T21:03:23.711Z,14.20
2023-04-14T21:05:51.676Z,14.00
2023-04-14T21:08:19.409Z,14.20
2023-04-14T21:11:15.962Z,14.73
2023-04-14T21:15:34.689Z,14.30
2023-04-14T21:16:23.757Z,15.47
2023-04-14T21:18:51.519Z,14.63
2023-04-14T21:21:19.112Z,13.97
2023-04-14T21:23:46.883Z,14.30
2023-04-14T21:26:14.536Z,14.70
2023-04-14T21:28:43.474Z,12.23
2023-04-14T21:31:11.370Z,13.63
2023-04-14T21:33:41.552Z,14.77
2023-04-14T21:36:10.834Z,13.73
2023-04-14T21:38:39.418Z,15.50
2023-04-14T21:41:07.763Z,15.43
2023-04-14T21:43:36.024Z,16.00
2023-04-14T21:46:05.460Z,15.30
2023-04-14T21:48:33.281Z,17.03
2023-04-14T21:51:01.369Z,17.50
2023-04-14T21:53:28.931Z,16.00
2023-04-14T21:56:05.320Z,17.23
2023-04-14T21:58:37.200Z,16.33
2023-04-14T22:01:07.146Z,16.10
2023-04-14T22:03:37.210Z,14.90
2023-04-14T22:06:05.772Z,16.20
2023-04-14T22:08:33.434Z,15.33
2023-04-14T22:11:01.377Z,16.60
2023-04-14T22:13:29.045Z,16.30
2023-04-14T22:15:56.659Z,19.47
2023-04-14T22:18:27.538Z,22.10
2023-04-14T22:20:55.608Z,28.13
2023-04-14T22:23:23.755Z,76.53
2023-04-14T22:25:51.529Z,107.50
2023-04-14T22:28:19.187Z,111.43
2023-04-14T22:30:46.895Z,69.17
2023-04-14T22:33:14.807Z,60.10
2023-04-14T22:35:43.772Z,163.40
2023-04-14T22:38:11.437Z,185.33
2023-04-14T22:40:39.198Z,132.90
2023-04-14T22:43:08.786Z,139.83
2023-04-14T22:45:37.603Z,125.57
2023-04-14T22:48:05.416Z,100.43
2023-04-14T22:50:33.760Z,97.50
2023-04-14T22:53:02.857Z,91.37
2023-04-14T22:55:30.622Z,85.23
2023-04-14T22:57:58.207Z,80.27
2023-04-14T23:00:26.700Z,66.83
2023-04-14T23:02:56.167Z,73.73
2023-04-14T23:05:24.324Z,65.20
2023-04-14T23:07:52.690Z,69.60
2023-04-14T23:10:21.739Z,64.90
2023-04-14T23:12:49.397Z,79.53
2023-04-14T23:15:17.078Z,78.63
2023-04-14T23:17:45.142Z,65.53
2023-04-14T23:20:13.792Z,55.60
2023-04-14T23:22:41.604Z,51.33
2023-04-14T23:25:10.620Z,50.70
2023-04-14T23:27:39.680Z,52.47
2023-04-14T23:30:08.742Z,81.53
2023-04-14T23:32:36.654Z,75.37
2023-04-14T23:35:04.329Z,239.43
2023-04-14T23:37:31.924Z,308.27
2023-04-14T23:39:59.552Z,315.53
2023-04-14T23:42:27.308Z,285.53
2023-04-14T23:44:56.777Z,246.83
2023-04-14T23:47:25.167Z,288.40
2023-04-14T23:49:53.016Z,295.37
2023-04-14T23:52:21.297Z,294.47
2023-04-14T23:54:49.319Z,268.90
2023-04-14T23:57:17.897Z,272.37
2023-04-14T23:59:45.599Z,303.30
